createdAt,value
2022-10-11T00:00:43.381Z,18.70
2022-10-11T00:03:16.565Z,18.70
2022-10-11T00:05:49.458Z,17.50
2022-10-11T00:08:22.365Z,18.60
2022-10-11T00:11:02.759Z,17.80
2022-10-11T00:13:35.900Z,17.40
2022-10-11T00:16:14.588Z,16.30
2022-10-11T00:18:47.925Z,16.20
2022-10-11T00:21:21.978Z,18.80
2022-10-11T00:23:54.959Z,16.80
2022-10-11T00:26:28.113Z,15.90
2022-10-11T00:29:01.248Z,16.60
2022-10-11T00:31:35.789Z,18.20
2022-10-11T00:34:10.748Z,16.90
2022-10-11T00:36:43.562Z,17.30
2022-10-11T00:39:16.605Z,18.80
2022-10-11T00:41:49.678Z,16.50
2022-10-11T00:44:24.889Z,18.50
2022-10-11T00:47:00.728Z,16.20
2022-10-11T00:49:37.873Z,15.40
2022-10-11T00:52:15.723Z,18.90
2022-10-11T00:54:48.892Z,17.00
2022-10-11T00:57:24.089Z,16.50
2022-10-11T00:59:57.473Z,19.00
2022-10-11T01:02:30.855Z,18.40
2022-10-11T01:05:28.076Z,18.40
2022-10-11T01:07:58.736Z,16.60
2022-10-11T01:10:32.087Z,16.70
2022-10-11T01:13:10.217Z,18.10
2022-10-11T01:15:46.733Z,17.80
2022-10-11T01:18:23.630Z,21.60
2022-10-11T01:21:05.011Z,20.90
2022-10-11T01:24:15.908Z,18.00
2022-10-11T01:27:34.516Z,23.20
2022-10-11T01:30:28.716Z,15.70
2022-10-11T01:33:14.676Z,18.60
2022-10-11T01:35:53.353Z,17.40
2022-10-11T01:38:31.897Z,19.70
2022-10-11T01:41:07.958Z,18.00
2022-10-11T01:43:40.605Z,17.50
2022-10-11T01:46:15.281Z,17.10
2022-10-11T01:48:56.515Z,19.80
2022-10-11T01:51:31.127Z,19.80
2022-10-11T01:54:56.659Z,17.60
2022-10-11T01:57:48.502Z,18.90
2022-10-11T02:00:22.973Z,16.80
2022-10-11T02:03:09.969Z,20.00
2022-10-11T02:05:47.012Z,15.80
2022-10-11T02:08:28.373Z,18.60
2022-10-11T02:11:06.115Z,16.40
2022-10-11T02:13:41.859Z,18.00
2022-10-11T02:16:19.127Z,16.20
2022-10-11T02:18:53.397Z,18.20
2022-10-11T02:21:27.165Z,18.40
2022-10-11T02:24:01.972Z,21.40
2022-10-11T02:26:35.585Z,18.00
2022-10-11T02:29:08.784Z,18.70
2022-10-11T02:31:41.741Z,20.90
2022-10-11T02:34:19.556Z,19.50
2022-10-11T02:36:59.971Z,19.10
2022-10-11T02:39:35.786Z,19.00
2022-10-11T02:42:14.499Z,18.40
2022-10-11T02:44:53.680Z,19.90
2022-10-11T02:47:26.563Z,17.00
2022-10-11T02:49:59.356Z,16.20
2022-10-11T02:52:32.241Z,15.90
2022-10-11T02:55:06.701Z,17.70
2022-10-11T02:57:39.814Z,15.60
2022-10-11T03:00:16.205Z,17.30
2022-10-11T03:02:49.300Z,18.60
2022-10-11T03:05:22.765Z,18.90
2022-10-11T03:07:55.831Z,19.20
2022-10-11T03:10:28.819Z,20.20
2022-10-11T03:13:01.759Z,19.90
2022-10-11T03:15:35.229Z,24.20
2022-10-11T03:18:08.638Z,19.20
2022-10-11T03:20:41.761Z,17.80
2022-10-11T03:23:14.877Z,18.90
2022-10-11T03:25:49.593Z,19.00
2022-10-11T03:28:23.257Z,21.10
2022-10-11T03:30:56.540Z,17.00
2022-10-11T03:33:29.909Z,18.40
2022-10-11T03:36:03.886Z,19.90
2022-10-11T03:38:37.466Z,16.60
2022-10-11T03:41:10.726Z,17.10
2022-10-11T03:43:43.582Z,18.90
2022-10-11T03:46:16.963Z,19.70
2022-10-11T03:48:49.720Z,20.50
2022-10-11T03:51:22.599Z,19.20
2022-10-11T03:53:55.504Z,19.90
2022-10-11T03:56:28.777Z,20.00
2022-10-11T03:59:02.434Z,19.40
2022-10-11T04:01:38.530Z,20.90
2022-10-11T04:04:11.517Z,18.50
2022-10-11T04:06:44.360Z,19.20
2022-10-11T04:09:17.579Z,14.90
2022-10-11T04:11:50.677Z,17.50
2022-10-11T04:14:23.728Z,20.30
2022-10-11T04:17:00.266Z,18.20
2022-10-11T04:19:33.639Z,16.50
2022-10-11T04:22:06.739Z,19.20
2022-10-11T04:24:40.009Z,19.80
2022-10-11T04:27:13.102Z,19.30
2022-10-11T04:29:46.156Z,18.80
2022-10-11T04:32:19.634Z,20.30
2022-10-11T04:34:52.587Z,18.20
2022-10-11T04:37:25.422Z,18.80
2022-10-11T04:39:58.513Z,20.40
2022-10-11T04:42:31.430Z,22.60
2022-10-11T04:45:05.951Z,19.70
2022-10-11T04:47:40.773Z,23.00
2022-10-11T04:50:14.154Z,21.60
2022-10-11T04:52:47.374Z,21.50
2022-10-11T04:55:21.204Z,20.70
2022-10-11T04:57:54.321Z,22.10
2022-10-11T05:00:27.718Z,23.90
2022-10-11T05:03:00.784Z,24.40
2022-10-11T05:05:34.204Z,23.60
2022-10-11T05:08:07.591Z,22.50
2022-10-11T05:10:41.133Z,19.90
2022-10-11T05:13:14.602Z,21.70
2022-10-11T05:15:47.751Z,19.00
2022-10-11T05:18:21.102Z,20.10
2022-10-11T05:21:00.927Z,21.70
2022-10-11T05:23:34.988Z,19.70
2022-10-11T05:26:08.775Z,21.20
2022-10-11T05:28:42.339Z,24.70
2022-10-11T05:31:15.371Z,21.60
2022-10-11T05:33:48.609Z,21.00
2022-10-11T05:36:21.658Z,23.10
2022-10-11T05:38:54.920Z,27.10
2022-10-11T05:41:27.693Z,27.50
2022-10-11T05:44:00.833Z,20.60
2022-10-11T05:46:33.898Z,24.80
2022-10-11T05:49:06.833Z,24.50
2022-10-11T05:51:39.911Z,21.40
2022-10-11T05:54:13.642Z,18.80
2022-10-11T05:56:46.943Z,23.50
2022-10-11T05:59:20.348Z,26.30
2022-10-11T06:01:53.317Z,19.50
2022-10-11T06:04:26.612Z,20.50
2022-10-11T06:06:59.970Z,26.30
2022-10-11T06:09:35.201Z,24.90
2022-10-11T06:12:09.109Z,23.90
2022-10-11T06:14:42.550Z,20.80
2022-10-11T06:17:15.609Z,19.30
2022-10-11T06:19:49.093Z,19.80
2022-10-11T06:22:25.119Z,22.10
2022-10-11T08:38:16.678Z,7.70
2022-10-11T08:41:27.137Z,8.80
2022-10-11T08:47:19.198Z,8.30
2022-10-11T11:48:41.875Z,7.20
2022-10-11T11:51:16.400Z,7.70
2022-10-11T11:53:55.980Z,7.70
2022-10-11T11:56:54.868Z,7.20
2022-10-11T18:04:47.960Z,10.10
2022-10-11T18:07:21.345Z,9.20
2022-10-11T18:09:54.443Z,9.40
2022-10-11T18:12:27.598Z,10.60
2022-10-11T18:15:01.377Z,11.50
2022-10-11T18:17:35.701Z,10.80
2022-10-11T18:20:12.117Z,10.20
2022-10-11T18:22:46.363Z,12.50
2022-10-11T18:25:20.684Z,10.60
2022-10-11T18:27:55.875Z,10.60
